Time;durP1;ratioP1;P1;durP2;ratioP2;P2;SDS_P1;SDS_P2;PMS_P1;PMS_P2;Temp;Humidity;BMP_temperature;BMP_pressure;BME280_temperature;BME280_humidity;BME280_pressure;Samples;Min_cycle;Max_cycle;Signal;HPM_P1;HPM_P2
2023/03/17 00:00:16;;;;;;;5.33;5.03;;;;;;;5.52;89.93;99745.47;5051724;28;20285;-69
2023/03/17 00:02:45;;;;;;;5.63;5.33;;;;;;;5.63;89.69;99747.81;5051985;28;20227;-69
2023/03/17 00:05:26;;;;;;;5.53;5.23;;;;;;;5.61;89.79;99755.03;5052175;28;20279;-69
2023/03/17 00:07:54;;;;;;;5.70;5.40;;;;;;;5.54;89.61;99748.78;5069971;28;20556;-70
2023/03/17 00:10:24;;;;;;;5.70;5.30;;;;;;;5.65;89.85;99756.38;5062724;28;20730;-69
2023/03/17 00:12:52;;;;;;;5.93;5.53;;;;;;;5.68;89.76;99760.53;5051845;28;20246;-69
2023/03/17 00:15:20;;;;;;;5.43;5.13;;;;;;;5.68;90.09;99758.72;5062683;28;20664;-69
2023/03/17 00:17:48;;;;;;;5.60;5.30;;;;;;;5.61;90.46;99755.03;5071894;28;20196;-70
2023/03/17 00:20:25;;;;;;;5.70;5.30;;;;;;;5.56;90.62;99757.34;5071982;28;20196;-69
2023/03/17 00:22:53;;;;;;;5.03;4.83;;;;;;;5.48;91.33;99749.41;5071625;28;20207;-69
2023/03/17 00:25:24;;;;;;;5.77;5.37;;;;;;;5.61;91.17;99752.41;5060415;28;20279;-70
2023/03/17 00:27:51;;;;;;;5.33;5.03;;;;;;;5.56;91.08;99762.59;5056202;28;20189;-70
2023/03/17 00:30:20;;;;;;;5.13;4.83;;;;;;;5.54;91.74;99754.06;5071863;28;20196;-70
2023/03/17 00:32:48;;;;;;;6.27;5.87;;;;;;;5.56;91.47;99741.53;5071680;28;20265;-69
2023/03/17 00:35:21;;;;;;;5.80;5.40;;;;;;;5.57;91.02;99745.00;5071758;28;20257;-70
2023/03/17 00:37:51;;;;;;;5.67;5.37;;;;;;;5.52;90.67;99748.09;5031433;28;20676;-70
2023/03/17 00:40:21;;;;;;;5.53;5.20;;;;;;;5.67;90.43;99754.44;5031473;28;20193;-70
2023/03/17 00:42:48;;;;;;;5.20;5.00;;;;;;;5.60;90.97;99748.13;5034380;28;20640;-70
2023/03/17 00:45:15;;;;;;;5.40;5.00;;;;;;;5.55;90.92;99760.97;5035877;28;20193;-70
2023/03/17 00:47:44;;;;;;;5.07;4.77;;;;;;;5.51;90.87;99758.78;5068919;28;20270;-70
2023/03/17 00:50:13;;;;;;;5.27;4.97;;;;;;;5.51;91.17;99758.78;5055797;28;20203;-70
2023/03/17 00:52:39;;;;;;;5.33;5.03;;;;;;;5.49;91.43;99756.34;5055382;28;20262;-70
2023/03/17 00:55:09;;;;;;;4.93;4.53;;;;;;;5.42;91.60;99750.03;5055447;28;20194;-70
2023/03/17 00:57:37;;;;;;;5.17;4.97;;;;;;;5.32;92.11;99757.22;5055361;28;20276;-70
2023/03/17 01:00:05;;;;;;;5.03;4.83;;;;;;;5.39;91.90;99754.78;5055402;28;20231;-70
2023/03/17 01:02:32;;;;;;;4.63;4.33;;;;;;;5.38;92.42;99759.22;5055186;28;20196;-70
2023/03/17 01:04:59;;;;;;;4.80;4.50;;;;;;;5.32;92.43;99759.84;5055629;28;20247;-70
2023/03/17 01:07:29;;;;;;;4.73;4.53;;;;;;;5.35;92.66;99764.81;5068620;28;20280;-70
2023/03/17 01:09:56;;;;;;;5.10;4.80;;;;;;;5.26;92.76;99764.91;5075168;28;20195;-71
2023/03/17 01:12:25;;;;;;;4.73;4.53;;;;;;;5.31;92.99;99762.66;5059756;28;20247;-70
2023/03/17 01:14:52;;;;;;;4.00;3.80;;;;;;;5.33;92.40;99772.06;5062831;28;20624;-70
2023/03/17 01:17:18;;;;;;;4.57;4.37;;;;;;;5.32;92.37;99767.75;5074925;28;20227;-71
2023/03/17 01:19:46;;;;;;;4.30;4.10;;;;;;;5.40;91.90;99780.16;5074969;28;20276;-69
2023/03/17 01:22:13;;;;;;;4.60;4.40;;;;;;;5.45;91.85;99781.34;5074463;28;20680;-69
2023/03/17 01:24:40;;;;;;;4.27;4.07;;;;;;;5.44;91.05;99774.41;5074294;28;20216;-69
2023/03/17 01:27:07;;;;;;;4.50;4.30;;;;;;;5.43;91.02;99787.72;5074279;28;20197;-69
2023/03/17 01:29:36;;;;;;;3.93;3.73;;;;;;;5.47;91.13;99784.63;5074843;28;20262;-69
2023/03/17 01:32:03;;;;;;;4.50;4.30;;;;;;;5.38;91.23;99785.56;5074372;28;20200;-69
2023/03/17 01:34:30;;;;;;;3.57;3.47;;;;;;;5.53;90.84;99788.44;5074522;28;20707;-70
2023/03/17 01:36:57;;;;;;;4.40;4.20;;;;;;;5.54;90.45;99785.66;5074252;28;20193;-69
2023/03/17 01:39:24;;;;;;;4.63;4.23;;;;;;;5.48;90.71;99780.19;5074597;28;20216;-69
2023/03/17 01:41:55;;;;;;;4.10;3.90;;;;;;;5.45;90.74;99786.59;5074698;28;20192;-69
2023/03/17 01:44:24;;;;;;;4.43;4.13;;;;;;;5.38;90.71;99782.94;5074316;28;20304;-69
2023/03/17 01:46:52;;;;;;;4.50;4.30;;;;;;;5.48;90.57;99788.91;5074441;28;20202;-70
2023/03/17 01:49:25;;;;;;;4.47;4.17;;;;;;;5.56;90.22;99794.22;5074172;28;20196;-69
2023/03/17 01:52:00;;;;;;;4.30;4.10;;;;;;;5.67;89.46;99798.38;5074041;28;20231;-70
2023/03/17 01:54:34;;;;;;;4.07;3.87;;;;;;;5.66;89.05;99797.59;5053672;28;20560;-70
2023/03/17 01:57:08;;;;;;;4.63;4.43;;;;;;;5.71;88.98;99792.66;5054314;28;20214;-70
2023/03/17 01:59:38;;;;;;;3.97;3.77;;;;;;;5.74;88.59;99792.34;5054407;28;20220;-70
2023/03/17 02:02:10;;;;;;;3.60;3.40;;;;;;;5.84;88.43;99799.34;5054075;28;20216;-70
2023/03/17 02:04:37;;;;;;;3.87;3.67;;;;;;;5.82;87.88;99801.28;5073113;28;20208;-70
2023/03/17 02:07:05;;;;;;;4.10;3.90;;;;;;;5.71;88.30;99803.19;5074101;28;20192;-70
2023/03/17 02:09:33;;;;;;;3.10;3.00;;;;;;;5.77;88.21;99802.56;5074054;28;20187;-70
2023/03/17 02:12:02;;;;;;;3.57;3.47;;;;;;;5.85;87.71;99814.16;5073910;28;20261;-70
2023/03/17 02:14:29;;;;;;;3.77;3.57;;;;;;;5.87;87.51;99812.22;5054374;28;20228;-70
2023/03/17 02:16:56;;;;;;;3.30;3.20;;;;;;;5.86;87.06;99806.09;5053842;28;20200;-70
2023/03/17 02:19:25;;;;;;;3.70;3.50;;;;;;;5.96;86.65;99816.53;5054242;28;20200;-70
2023/03/17 02:21:56;;;;;;;3.80;3.60;;;;;;;5.95;86.89;99806.97;5053776;28;20208;-70
2023/03/17 02:24:29;;;;;;;3.73;3.53;;;;;;;6.04;86.25;99811.28;5058039;28;20200;-70
2023/03/17 02:27:00;;;;;;;3.10;3.00;;;;;;;6.06;85.64;99817.19;5073352;28;20648;-70
2023/03/17 02:29:27;;;;;;;3.53;3.23;;;;;;;6.11;85.48;99820.19;5073929;28;20191;-69
2023/03/17 02:31:54;;;;;;;3.00;2.90;;;;;;;6.13;85.28;99820.88;5073552;28;20188;-70
2023/03/17 02:34:21;;;;;;;3.37;3.27;;;;;;;6.01;84.88;99815.06;5071320;28;20567;-70
2023/03/17 02:36:47;;;;;;;3.23;3.03;;;;;;;5.96;85.41;99821.78;5055358;28;20196;-70
2023/03/17 02:39:15;;;;;;;3.60;3.47;;;;;;;5.97;85.43;99828.72;5053397;28;20299;-70
2023/03/17 02:41:42;;;;;;;3.37;3.07;;;;;;;6.05;84.70;99831.38;5053117;28;20216;-70
2023/03/17 02:44:09;;;;;;;3.10;3.00;;;;;;;6.07;84.58;99834.66;5063184;28;20219;-70
2023/03/17 02:46:36;;;;;;;3.00;2.70;;;;;;;6.19;84.40;99838.66;5073562;28;20192;-70
2023/03/17 02:49:04;;;;;;;3.00;2.80;;;;;;;6.30;83.68;99846.31;5072915;28;20663;-70
2023/03/17 02:51:31;;;;;;;3.37;3.17;;;;;;;6.35;83.38;99844.00;5072112;28;20192;-70
2023/03/17 02:53:57;;;;;;;2.73;2.63;;;;;;;6.43;82.42;99847.50;5072385;28;20693;-70
2023/03/17 02:56:26;;;;;;;3.00;2.80;;;;;;;6.42;82.57;99851.13;5072974;28;20667;-70
2023/03/17 02:58:52;;;;;;;2.70;2.60;;;;;;;6.34;82.72;99843.19;5063709;28;20220;-70
2023/03/17 03:01:19;;;;;;;3.10;3.00;;;;;;;6.43;82.39;99846.66;5066719;28;20311;-70
2023/03/17 03:03:47;;;;;;;2.77;2.67;;;;;;;6.51;82.31;99859.88;5072804;28;20281;-70
2023/03/17 03:06:14;;;;;;;3.00;2.90;;;;;;;6.55;81.31;99855.94;5072404;28;20188;-70
2023/03/17 03:08:40;;;;;;;2.90;2.70;;;;;;;6.53;81.34;99861.38;5072803;28;20198;-71
2023/03/17 03:11:07;;;;;;;3.00;2.90;;;;;;;6.59;81.50;99862.53;5057109;28;20188;-71
2023/03/17 03:13:36;;;;;;;2.90;2.80;;;;;;;6.56;81.26;99862.84;5052937;28;20578;-70
2023/03/17 03:16:03;;;;;;;2.70;2.60;;;;;;;6.56;81.26;99868.13;5052754;28;20207;-70
2023/03/17 03:18:31;;;;;;;2.70;2.60;;;;;;;6.64;80.83;99876.06;5052368;28;20200;-70
2023/03/17 03:20:58;;;;;;;2.70;2.60;;;;;;;6.71;80.35;99877.09;5064818;28;20200;-70
2023/03/17 03:23:25;;;;;;;2.37;2.27;;;;;;;6.73;80.65;99872.47;5072181;28;20226;-70
2023/03/17 03:25:51;;;;;;;2.30;2.20;;;;;;;6.71;80.20;99879.72;5072564;28;20200;-70
2023/03/17 03:28:18;;;;;;;2.50;2.40;;;;;;;6.77;80.30;99876.44;5072584;28;20199;-70
2023/03/17 03:30:46;;;;;;;2.60;2.50;;;;;;;6.75;79.69;99876.59;5061324;28;20192;-70
2023/03/17 03:33:14;;;;;;;2.40;2.30;;;;;;;6.72;79.66;99874.28;5052713;28;20270;-70
2023/03/17 03:35:41;;;;;;;2.90;2.40;;;;;;;6.79;79.26;99880.56;5052257;28;20626;-70
2023/03/17 03:38:08;;;;;;;2.50;2.30;;;;;;;6.80;79.12;99876.09;5052291;28;20244;-69
2023/03/17 03:40:36;;;;;;;2.10;2.00;;;;;;;6.88;79.06;99884.03;5060798;28;20632;-70
2023/03/17 03:43:03;;;;;;;2.63;2.53;;;;;;;6.91;78.83;99889.00;5060290;28;20716;-70
2023/03/17 03:45:30;;;;;;;2.50;2.30;;;;;;;6.85;78.67;99879.06;5052208;28;20232;-70
2023/03/17 03:47:58;;;;;;;2.60;2.50;;;;;;;6.83;78.82;99881.06;5052291;28;20230;-70
2023/03/17 03:50:25;;;;;;;2.40;2.20;;;;;;;6.78;78.40;99878.09;5052279;28;20251;-70
2023/03/17 03:52:52;;;;;;;2.60;2.50;;;;;;;6.78;78.82;99880.72;5063955;28;20223;-70
2023/03/17 03:55:18;;;;;;;2.67;2.57;;;;;;;6.83;78.74;99891.63;5072382;28;20255;-70
2023/03/17 03:57:45;;;;;;;2.80;2.60;;;;;;;6.84;78.75;99888.00;5072372;28;20195;-70
2023/03/17 04:00:13;;;;;;;2.63;2.53;;;;;;;6.75;78.27;99888.97;5031958;28;20225;-70
2023/03/17 04:02:40;;;;;;;2.50;2.40;;;;;;;6.76;78.17;99890.63;5050345;28;20292;-70
2023/03/17 04:05:09;;;;;;;2.80;2.70;;;;;;;6.83;78.13;99896.91;5051546;28;20312;-69
2023/03/17 04:07:36;;;;;;;2.87;2.63;;;;;;;6.89;78.07;99893.59;5052020;28;20224;-69
2023/03/17 04:10:03;;;;;;;2.67;2.57;;;;;;;6.87;78.28;99893.78;5051529;28;20188;-69
2023/03/17 04:12:30;;;;;;;3.00;2.87;;;;;;;6.76;77.53;99899.38;5051815;28;20259;-69
2023/03/17 04:14:57;;;;;;;3.30;3.20;;;;;;;6.77;77.56;99908.13;5050105;28;20193;-70
2023/03/17 04:17:24;;;;;;;3.30;3.20;;;;;;;6.77;77.95;99908.94;5053418;28;20202;-71
2023/03/17 04:19:51;;;;;;;4.03;3.13;;;;;;;6.84;77.30;99911.75;5055471;28;20186;-70
2023/03/17 04:22:19;;;;;;;3.80;3.60;;;;;;;6.90;77.08;99913.75;5055788;28;20192;-70
2023/03/17 04:24:46;;;;;;;3.23;3.10;;;;;;;6.81;77.14;99909.47;5055136;28;20215;-70
2023/03/17 04:27:14;;;;;;;3.33;3.10;;;;;;;6.82;76.71;99922.47;5055570;28;20200;-69
2023/03/17 04:29:41;;;;;;;2.97;2.77;;;;;;;6.75;76.73;99921.47;5055537;28;20272;-69
2023/03/17 04:32:09;;;;;;;2.50;2.40;;;;;;;6.77;77.03;99931.88;5055510;28;20290;-69
2023/03/17 04:34:35;;;;;;;3.30;2.90;;;;;;;6.79;76.64;99933.38;5055693;28;20198;-67
2023/03/17 04:37:02;;;;;;;2.60;2.40;;;;;;;6.83;77.21;99933.88;5055757;28;20196;-74
2023/03/17 04:39:30;;;;;;;4.27;2.87;;;;;;;6.87;76.42;99936.03;5055567;28;20192;-68
2023/03/17 04:41:57;;;;;;;3.50;3.30;;;;;;;7.01;77.71;99943.31;5055219;28;20246;-69
2023/03/17 04:44:24;;;;;;;3.00;2.80;;;;;;;7.06;76.47;99945.47;5054477;28;20208;-70
2023/03/17 04:46:51;;;;;;;4.70;3.20;;;;;;;7.06;75.40;99946.28;5055182;28;20665;-71
2023/03/17 04:49:18;;;;;;;3.03;2.63;;;;;;;7.03;75.25;99956.34;5055665;28;20196;-70
2023/03/17 04:51:45;;;;;;;3.27;3.10;;;;;;;7.03;76.01;99953.72;5055060;28;20197;-69
2023/03/17 04:54:11;;;;;;;3.17;3.00;;;;;;;7.07;75.89;99955.06;5055269;28;20204;-73
2023/03/17 04:56:40;;;;;;;3.30;3.10;;;;;;;7.09;75.82;99956.53;5054989;28;20704;-71
2023/03/17 04:59:06;;;;;;;5.13;3.67;;;;;;;7.13;75.47;99957.03;5054855;28;20289;-71
2023/03/17 05:01:33;;;;;;;7.57;4.60;;;;;;;7.09;75.45;99964.47;5054624;28;20196;-71
2023/03/17 05:04:00;;;;;;;7.47;5.70;;;;;;;7.14;74.93;99958.69;5054688;28;20704;-70
2023/03/17 05:06:26;;;;;;;10.30;6.73;;;;;;;7.22;74.64;99964.81;5055009;28;20236;-70
2023/03/17 05:08:53;;;;;;;6.73;6.23;;;;;;;7.27;74.76;99969.63;5054936;28;20252;-71
2023/03/17 05:11:20;;;;;;;6.80;4.53;;;;;;;7.31;74.45;99977.03;5054434;28;20201;-71
2023/03/17 05:13:48;;;;;;;10.17;5.03;;;;;;;7.28;74.67;99982.66;5054869;28;20248;-70
2023/03/17 05:16:15;;;;;;;21.47;5.73;;;;;;;7.26;74.34;99981.97;5054671;28;20215;-71
2023/03/17 05:18:42;;;;;;;6.50;4.17;;;;;;;7.33;74.81;99990.09;5054481;28;20739;-71
2023/03/17 05:21:10;;;;;;;3.33;3.20;;;;;;;7.35;73.94;99996.03;5054965;28;20192;-70
2023/03/17 05:23:37;;;;;;;9.30;3.70;;;;;;;7.40;74.14;99996.38;5054768;28;20193;-70
2023/03/17 05:26:04;;;;;;;3.87;3.53;;;;;;;7.56;73.99;100001.69;5054295;28;20677;-70
2023/03/17 05:28:31;;;;;;;4.50;3.80;;;;;;;7.66;73.61;100007.63;5054035;28;20217;-71
2023/03/17 05:30:59;;;;;;;8.17;4.03;;;;;;;7.68;73.17;100001.16;5054230;28;20198;-70
2023/03/17 05:33:26;;;;;;;6.67;3.83;;;;;;;7.69;72.49;100012.59;5054330;28;20657;-72
2023/03/17 05:35:53;;;;;;;12.37;3.43;;;;;;;7.75;72.15;100014.56;5054392;28;20308;-72
2023/03/17 05:38:19;;;;;;;6.40;4.40;;;;;;;7.87;72.33;100010.59;5054325;28;20249;-69
2023/03/17 05:40:49;;;;;;;4.60;3.57;;;;;;;7.93;71.48;100015.22;5054243;28;20273;-70
2023/03/17 05:43:16;;;;;;;5.53;3.63;;;;;;;7.90;71.57;100015.56;5054447;28;20196;-71
2023/03/17 05:45:43;;;;;;;4.07;3.60;;;;;;;7.88;71.50;100012.25;5054000;28;20216;-70
2023/03/17 05:48:12;;;;;;;3.67;3.37;;;;;;;7.72;72.78;100010.44;5053820;28;20709;-72
2023/03/17 05:50:38;;;;;;;15.77;3.37;;;;;;;7.84;71.79;100019.69;5051878;28;20279;-71
2023/03/17 05:53:05;;;;;;;4.83;3.70;;;;;;;7.92;72.17;100024.16;5053079;28;20859;-71
2023/03/17 05:55:32;;;;;;;4.77;4.37;;;;;;;8.02;71.91;100024.81;5053488;28;20296;-71
2023/03/17 05:57:59;;;;;;;11.43;4.53;;;;;;;8.10;70.66;100027.44;5053107;28;20196;-72
2023/03/17 06:00:27;;;;;;;11.17;5.43;;;;;;;8.24;70.41;100027.63;5052158;28;20277;-75
2023/03/17 06:02:54;;;;;;;24.80;7.07;;;;;;;8.39;71.00;100039.19;5051314;28;20609;-74
2023/03/17 06:05:22;;;;;;;9.20;4.67;;;;;;;8.65;70.64;100037.13;5052538;28;20243;-71
2023/03/17 06:07:49;;;;;;;12.33;4.93;;;;;;;9.26;66.94;100053.09;5050745;28;20254;-72
2023/03/17 06:10:16;;;;;;;5.17;3.97;;;;;;;9.82;64.87;100067.81;5052175;28;20192;-71
2023/03/17 06:12:43;;;;;;;14.87;6.63;;;;;;;10.33;68.04;100056.44;5052628;28;20188;-73
2023/03/17 06:15:10;;;;;;;7.80;3.60;;;;;;;10.73;63.40;100064.84;5053139;28;20196;-70
2023/03/17 06:17:37;;;;;;;3.83;3.47;;;;;;;11.02;62.86;100074.63;5053221;28;20259;-70
2023/03/17 06:20:05;;;;;;;58.10;8.20;;;;;;;11.25;58.67;100080.66;5053745;28;20188;-72
2023/03/17 06:22:33;;;;;;;12.03;3.67;;;;;;;11.23;57.89;100090.63;5051372;28;20193;-72
2023/03/17 06:25:00;;;;;;;48.30;7.03;;;;;;;11.37;59.04;100083.66;5051253;28;20235;-72
2023/03/17 06:27:27;;;;;;;7.50;4.80;;;;;;;11.38;57.57;100086.13;5052074;28;20227;-75
2023/03/17 06:29:53;;;;;;;13.43;4.03;;;;;;;11.48;56.87;100096.47;5051194;28;20189;-73
2023/03/17 06:32:20;;;;;;;9.20;4.60;;;;;;;11.77;56.71;100091.94;5051934;28;20200;-75
2023/03/17 06:34:47;;;;;;;5.50;3.80;;;;;;;11.95;55.13;100102.97;5052054;28;20243;-75
2023/03/17 06:37:15;;;;;;;5.20;3.83;;;;;;;12.05;54.95;100095.47;5052129;28;20299;-76
2023/03/17 06:39:44;;;;;;;14.43;3.93;;;;;;;12.25;55.14;100104.47;5044950;28;20609;-73
2023/03/17 06:42:10;;;;;;;13.53;4.10;;;;;;;12.35;53.68;100102.31;5038739;28;20233;-74
2023/03/17 06:44:37;;;;;;;14.00;3.13;;;;;;;12.87;53.41;100085.88;5039171;28;20226;-72
2023/03/17 06:47:04;;;;;;;5.47;3.33;;;;;;;13.36;52.21;100091.91;5038253;28;20274;-74
2023/03/17 06:49:31;;;;;;;7.30;4.20;;;;;;;13.45;50.03;100086.19;5032793;28;20236;-72
2023/03/17 06:51:58;;;;;;;3.60;3.40;;;;;;;13.22;50.86;100085.69;5032422;28;20196;-71
2023/03/17 06:54:25;;;;;;;4.43;3.63;;;;;;;13.36;50.68;100076.69;5047785;28;20200;-73
2023/03/17 06:56:53;;;;;;;13.93;5.20;;;;;;;13.36;50.63;100075.88;5051377;28;20196;-73
2023/03/17 06:59:20;;;;;;;16.67;6.30;;;;;;;13.27;50.34;100077.91;5051458;28;20272;-72
2023/03/17 07:01:48;;;;;;;8.60;4.47;;;;;;;13.19;52.83;100075.41;5049047;28;20262;-69
2023/03/17 07:04:15;;;;;;;247.73;16.42;;;;;;;13.53;53.60;100078.00;5051993;28;20439;-72
2023/03/17 07:06:41;;;;;;;16.17;4.20;;;;;;;13.27;50.20;100083.22;5047595;28;20204;-72
2023/03/17 07:09:08;;;;;;;3.20;3.00;;;;;;;13.05;50.18;100079.03;5040721;28;20200;-75
2023/03/17 07:11:35;;;;;;;3.47;3.27;;;;;;;12.87;50.65;100084.00;5050811;28;20195;-76
2023/03/17 07:14:04;;;;;;;4.20;3.80;;;;;;;12.76;51.41;100081.06;5051451;28;20195;-74
2023/03/17 07:16:31;;;;;;;4.63;4.33;;;;;;;12.75;51.34;100088.28;5050761;28;20226;-72
2023/03/17 07:19:00;;;;;;;6.43;4.57;;;;;;;12.82;50.60;100089.13;5051164;28;20246;-70
2023/03/17 07:21:27;;;;;;;4.47;4.17;;;;;;;12.70;51.15;100085.34;5051227;28;20206;-72
2023/03/17 07:23:53;;;;;;;51.50;6.23;;;;;;;12.58;50.60;100089.56;5051523;28;20684;-74
2023/03/17 07:26:20;;;;;;;11.53;4.20;;;;;;;12.69;50.57;100088.19;5052362;28;20227;-74
2023/03/17 07:28:47;;;;;;;15.73;4.07;;;;;;;12.71;50.39;100095.00;5050889;28;20199;-74
2023/03/17 07:31:15;;;;;;;23.38;4.32;;;;;;;12.74;51.49;100091.94;5051049;28;20442;-71
2023/03/17 07:33:42;;;;;;;67.80;6.57;;;;;;;12.69;50.71;100081.03;5050659;28;20192;-74
2023/03/17 07:36:09;;;;;;;8.73;3.60;;;;;;;12.89;50.08;100095.31;5048208;28;20195;-72
2023/03/17 07:38:36;;;;;;;3.20;2.90;;;;;;;12.98;48.13;100096.84;5065298;28;20555;-75
2023/03/17 07:41:08;;;;;;;2.73;2.43;;;;;;;13.25;47.86;100095.97;5060003;28;20717;-74
2023/03/17 07:43:35;;;;;;;14.87;4.40;;;;;;;13.86;47.28;100089.59;5050500;28;20246;-72
2023/03/17 07:46:02;;;;;;;6.00;3.50;;;;;;;14.35;45.71;100091.94;5057740;28;20215;-72
2023/03/17 07:48:32;;;;;;;3.00;2.80;;;;;;;14.92;44.21;100090.25;5070101;28;20672;-73
2023/03/17 07:50:59;;;;;;;3.30;3.10;;;;;;;15.41;41.67;100087.81;5052715;28;20219;-73
2023/03/17 07:53:26;;;;;;;21.20;3.87;;;;;;;15.77;40.85;100097.97;5056092;28;20681;-71
2023/03/17 07:55:53;;;;;;;4.23;3.30;;;;;;;15.99;40.36;100088.53;5057166;28;20270;-72
2023/03/17 07:58:20;;;;;;;8.50;3.03;;;;;;;15.68;40.51;100084.00;5057574;28;20192;-71
2023/03/17 08:00:47;;;;;;;2.67;2.57;;;;;;;15.75;39.70;100079.44;5051362;28;20192;-73
2023/03/17 08:03:14;;;;;;;12.37;3.20;;;;;;;15.98;38.90;100072.69;5050979;28;20243;-73
2023/03/17 08:05:43;;;;;;;12.57;3.80;;;;;;;16.16;38.98;100075.47;5050762;28;20223;-74
2023/03/17 08:08:11;;;;;;;2.37;2.27;;;;;;;16.24;38.50;100083.19;5057143;28;20749;-71
2023/03/17 08:10:38;;;;;;;3.27;2.40;;;;;;;16.53;36.95;100072.69;5060242;28;20683;-73
2023/03/17 08:13:05;;;;;;;6.07;2.87;;;;;;;16.26;36.53;100084.66;5056961;28;20208;-73
2023/03/17 08:15:31;;;;;;;2.50;2.30;;;;;;;15.47;38.36;100081.63;5050553;28;20264;-72
2023/03/17 08:17:59;;;;;;;21.57;3.13;;;;;;;15.39;38.10;100075.69;5049375;28;20576;-74
2023/03/17 08:20:26;;;;;;;30.90;3.90;;;;;;;15.52;37.82;100079.13;5043696;28;20189;-74
2023/03/17 08:22:54;;;;;;;19.50;2.90;;;;;;;16.15;37.33;100079.16;5046585;28;20194;-73
2023/03/17 08:25:21;;;;;;;7.23;2.33;;;;;;;16.42;36.07;100086.81;5043174;28;20228;-73
2023/03/17 08:27:48;;;;;;;114.17;8.77;;;;;;;15.86;36.27;100076.03;5050704;28;20279;-74
2023/03/17 08:30:16;;;;;;;1.80;1.70;;;;;;;15.99;35.86;100085.88;5049220;28;20221;-71
2023/03/17 08:32:43;;;;;;;3.90;1.70;;;;;;;16.21;35.69;100079.09;5058776;28;20227;-73
2023/03/17 08:35:11;;;;;;;132.57;9.70;;;;;;;16.33;34.83;100081.91;5056945;28;20197;-74
2023/03/17 08:37:38;;;;;;;2.40;1.87;;;;;;;15.98;35.16;100068.16;5050157;28;20203;-71
2023/03/17 08:40:08;;;;;;;7.60;2.20;;;;;;;16.49;35.08;100070.69;5051070;28;20196;-76
2023/03/17 08:42:36;;;;;;;2.37;2.27;;;;;;;16.76;34.12;100061.31;5049518;28;20193;-73
2023/03/17 08:45:05;;;;;;;2.30;2.20;;;;;;;16.98;34.40;100065.22;5049673;28;20657;-72
2023/03/17 08:47:32;;;;;;;3.93;2.50;;;;;;;17.40;33.19;100061.63;5051213;28;20699;-80
2023/03/17 08:49:59;;;;;;;2.23;2.10;;;;;;;17.22;32.65;100057.09;5034706;28;20243;-73
2023/03/17 08:52:26;;;;;;;2.40;2.27;;;;;;;17.14;33.13;100051.19;5065109;28;20202;-76
2023/03/17 08:54:53;;;;;;;3.00;2.70;;;;;;;17.14;33.39;100054.69;5044686;28;20213;-72
2023/03/17 08:57:21;;;;;;;2.07;1.97;;;;;;;17.04;32.85;100050.91;5050084;28;20200;-70
2023/03/17 08:59:48;;;;;;;2.07;1.97;;;;;;;16.65;33.95;100043.28;5057506;28;20228;-73
2023/03/17 09:02:15;;;;;;;2.53;2.00;;;;;;;16.23;35.35;100039.50;5070133;28;20200;-71
2023/03/17 09:04:42;;;;;;;9.67;2.37;;;;;;;15.96;36.08;100043.41;5073859;28;20192;-71
2023/03/17 09:07:10;;;;;;;8.83;2.90;;;;;;;15.36;36.76;100042.13;5054626;28;20224;-73
2023/03/17 09:09:37;;;;;;;8.80;3.20;;;;;;;14.97;37.67;100044.13;5053515;28;20686;-72
2023/03/17 09:12:05;;;;;;;2.20;2.00;;;;;;;14.62;38.67;100043.56;5052913;28;20732;-72
2023/03/17 09:14:34;;;;;;;2.90;2.43;;;;;;;14.21;39.10;100043.00;5059155;28;20195;-75
2023/03/17 09:17:01;;;;;;;18.47;3.00;;;;;;;14.14;43.27;100044.81;5059976;28;20553;-70
2023/03/17 09:19:28;;;;;;;22.70;4.40;;;;;;;14.28;43.28;100046.50;5067761;28;20255;-71
2023/03/17 09:21:54;;;;;;;8.63;3.17;;;;;;;14.29;40.70;100053.50;5064766;28;20188;-72
2023/03/17 09:24:21;;;;;;;106.20;8.00;;;;;;;14.03;41.13;100042.78;5055635;28;20192;-72
2023/03/17 09:26:48;;;;;;;94.73;8.50;;;;;;;14.09;41.50;100046.47;5059632;28;20216;-72
2023/03/17 09:29:15;;;;;;;2.97;2.70;;;;;;;14.14;40.75;100047.47;5054623;28;20193;-69
2023/03/17 09:31:44;;;;;;;288.17;25.87;;;;;;;14.33;41.99;100048.53;5056291;28;20606;-72
2023/03/17 09:34:11;;;;;;;8.50;3.27;;;;;;;14.47;40.94;100040.34;5071784;28;20238;-72
2023/03/17 09:36:37;;;;;;;8.23;3.07;;;;;;;14.65;40.18;100048.53;5052513;28;20203;-73
2023/03/17 09:39:04;;;;;;;2.77;2.57;;;;;;;14.95;39.59;100046.19;5056491;28;20663;-72
2023/03/17 09:41:56;;;;;;;2.63;2.50;;;;;;;15.23;37.46;100047.50;5062049;28;20193;-72
2023/03/17 09:44:42;;;;;;;2.77;2.57;;;;;;;15.42;38.01;100052.00;5045691;28;20266;-72
2023/03/17 09:47:26;;;;;;;20.47;4.60;;;;;;;15.80;37.24;100050.13;5052331;28;20205;-71
2023/03/17 09:49:57;;;;;;;4.70;2.50;;;;;;;16.17;35.35;100056.44;5051992;28;20192;-74
2023/03/17 09:52:28;;;;;;;2.90;2.40;;;;;;;16.06;35.95;100038.41;5052126;28;20271;-73
2023/03/17 09:54:56;;;;;;;4.93;3.03;;;;;;;15.76;36.52;100043.56;5055578;28;20271;-74
2023/03/17 09:57:29;;;;;;;46.60;4.50;;;;;;;15.53;36.79;100037.91;5072072;28;20196;-71
2023/03/17 10:00:05;;;;;;;4.23;3.13;;;;;;;15.63;36.60;100043.66;5059552;28;20226;-71
2023/03/17 10:02:36;;;;;;;3.67;2.80;;;;;;;15.55;37.17;100029.66;5062613;28;20278;-71
2023/03/17 10:05:14;;;;;;;28.67;3.70;;;;;;;15.66;36.81;100042.38;5052202;28;20319;-71
2023/03/17 10:07:47;;;;;;;7.53;2.70;;;;;;;15.60;36.41;100033.34;5052386;28;20216;-73
2023/03/17 10:10:19;;;;;;;98.70;8.43;;;;;;;15.53;36.67;100037.13;5064106;28;20731;-72
2023/03/17 10:12:54;;;;;;;6.23;2.60;;;;;;;15.44;37.13;100039.22;5060709;28;20193;-72
2023/03/17 10:15:34;;;;;;;6.67;3.17;;;;;;;15.21;37.13;100033.53;5061067;28;20195;-72
2023/03/17 10:18:10;;;;;;;4.97;2.40;;;;;;;14.83;37.62;100034.50;5032397;28;20577;-70
2023/03/17 10:20:50;;;;;;;14.00;6.47;;;;;;;14.82;38.30;100022.97;5063257;28;20241;-71
2023/03/17 10:23:20;;;;;;;2.47;2.30;;;;;;;14.84;37.27;100026.25;5057848;28;20179;-70
2023/03/17 10:25:48;;;;;;;12.87;3.30;;;;;;;14.70;37.94;100024.63;5072249;28;20216;-69
2023/03/17 10:28:26;;;;;;;4.03;2.30;;;;;;;14.80;37.45;100024.22;5069340;28;20196;-70
2023/03/17 10:30:53;;;;;;;2.70;2.53;;;;;;;14.51;38.06;100017.50;5057845;28;20285;-70
2023/03/17 10:33:21;;;;;;;5.53;2.70;;;;;;;14.31;38.71;100016.69;5072095;28;20246;-70
2023/03/17 10:35:48;;;;;;;13.23;3.33;;;;;;;14.54;38.61;100009.03;5071262;28;20191;-70
2023/03/17 10:38:18;;;;;;;2.93;2.73;;;;;;;14.74;37.71;100019.69;5071142;28;20192;-69
2023/03/17 10:40:47;;;;;;;2.30;2.20;;;;;;;14.48;37.61;100012.56;5071226;28;20196;-70
2023/03/17 10:43:19;;;;;;;2.00;1.90;;;;;;;14.38;37.81;100017.50;5072535;28;20195;-70
2023/03/17 10:45:58;;;;;;;2.40;2.07;;;;;;;14.33;38.09;100006.63;5072215;28;20246;-70
2023/03/17 10:48:28;;;;;;;4.47;2.10;;;;;;;14.43;37.88;100007.03;5072120;28;20269;-71
2023/03/17 10:50:57;;;;;;;5.43;2.37;;;;;;;14.41;37.84;100011.75;5072083;28;20297;-70
2023/03/17 10:53:27;;;;;;;4.30;2.67;;;;;;;14.53;37.48;100012.75;5050569;28;20198;-70
2023/03/17 10:55:58;;;;;;;5.33;3.07;;;;;;;14.35;38.37;100001.91;5032466;28;20276;-70
2023/03/17 10:58:39;;;;;;;2.53;2.17;;;;;;;14.01;38.57;99991.38;5037489;28;20265;-70
2023/03/17 11:01:08;;;;;;;2.77;2.27;;;;;;;14.08;38.57;100015.44;5051668;28;20718;-70
2023/03/17 11:03:39;;;;;;;5.63;2.37;;;;;;;14.13;37.76;100015.66;5051994;28;20281;-69
2023/03/17 11:06:08;;;;;;;2.23;2.13;;;;;;;14.21;37.62;99996.78;5051372;28;20216;-70
2023/03/17 11:08:39;;;;;;;5.37;4.83;;;;;;;14.17;37.64;100007.00;5051694;28;20192;-70
2023/03/17 11:11:09;;;;;;;2.20;2.10;;;;;;;14.14;37.79;100007.41;5051813;28;20189;-71
2023/03/17 11:13:36;;;;;;;16.10;2.97;;;;;;;14.17;38.27;100006.19;5051618;28;20196;-70
2023/03/17 11:16:21;;;;;;;10.27;2.77;;;;;;;14.26;37.76;99996.97;5051478;28;20731;-70
2023/03/17 11:18:52;;;;;;;17.93;3.47;;;;;;;14.50;37.50;99997.13;5051389;28;20649;-70
2023/03/17 11:21:25;;;;;;;4.03;2.40;;;;;;;14.48;36.75;99990.34;5053205;28;20217;-70
2023/03/17 11:23:53;;;;;;;4.23;2.00;;;;;;;14.30;37.12;99996.31;5051054;28;20239;-70
2023/03/17 11:26:44;;;;;;;3.87;2.00;;;;;;;14.07;37.52;99990.59;5050674;28;20225;-70
2023/03/17 11:29:34;;;;;;;6.33;2.50;;;;;;;14.07;37.75;99982.56;5036725;28;20317;-71
2023/03/17 11:32:16;;;;;;;9.57;3.07;;;;;;;14.23;37.54;99986.69;5051330;28;20181;-70
2023/03/17 11:34:58;;;;;;;10.73;2.53;;;;;;;14.19;37.82;99991.59;5050922;28;20625;-70
2023/03/17 11:37:37;;;;;;;2.27;2.17;;;;;;;13.83;38.56;99983.19;5052298;28;20195;-71